sensor_id;sensor_type;location;lat;lon;timestamp;P1;durP1;ratioP1;P2;durP2;ratioP2
10603;SDS011;5349;41.554;23.274;2023-01-31T00:00:52;47.57;;;32.93;;
10603;SDS011;5349;41.554;23.274;2023-01-31T00:03:20;44.23;;;30.23;;
10603;SDS011;5349;41.554;23.274;2023-01-31T00:05:47;42.60;;;27.80;;
10603;SDS011;5349;41.554;23.274;2023-01-31T00:08:14;50.60;;;30.43;;
10603;SDS011;5349;41.554;23.274;2023-01-31T00:10:41;149.17;;;45.40;;
10603;SDS011;5349;41.554;23.274;2023-01-31T00:13:07;59.80;;;31.37;;
10603;SDS011;5349;41.554;23.274;2023-01-31T00:15:34;49.87;;;27.87;;
10603;SDS011;5349;41.554;23.274;2023-01-31T00:18:01;46.77;;;29.00;;
10603;SDS011;5349;41.554;23.274;2023-01-31T00:20:29;37.83;;;25.10;;
10603;SDS011;5349;41.554;23.274;2023-01-31T00:22:57;37.40;;;23.93;;
10603;SDS011;5349;41.554;23.274;2023-01-31T00:25:23;47.57;;;27.07;;
10603;SDS011;5349;41.554;23.274;2023-01-31T00:27:50;36.93;;;23.17;;
10603;SDS011;5349;41.554;23.274;2023-01-31T00:30:17;45.60;;;25.93;;
10603;SDS011;5349;41.554;23.274;2023-01-31T00:32:44;37.67;;;24.30;;
10603;SDS011;5349;41.554;23.274;2023-01-31T00:35:13;33.47;;;23.80;;
10603;SDS011;5349;41.554;23.274;2023-01-31T00:37:41;36.33;;;23.93;;
10603;SDS011;5349;41.554;23.274;2023-01-31T00:40:09;47.23;;;26.17;;
10603;SDS011;5349;41.554;23.274;2023-01-31T00:42:36;33.20;;;22.20;;
10603;SDS011;5349;41.554;23.274;2023-01-31T00:45:03;70.80;;;29.13;;
10603;SDS011;5349;41.554;23.274;2023-01-31T00:47:31;33.27;;;19.93;;
10603;SDS011;5349;41.554;23.274;2023-01-31T00:49:58;43.43;;;21.80;;
10603;SDS011;5349;41.554;23.274;2023-01-31T00:52:25;36.07;;;21.20;;
10603;SDS011;5349;41.554;23.274;2023-01-31T00:54:53;36.27;;;20.53;;
10603;SDS011;5349;41.554;23.274;2023-01-31T00:57:20;29.53;;;18.43;;
10603;SDS011;5349;41.554;23.274;2023-01-31T00:59:46;32.60;;;18.63;;
10603;SDS011;5349;41.554;23.274;2023-01-31T01:02:13;31.30;;;18.87;;
10603;SDS011;5349;41.554;23.274;2023-01-31T01:04:40;30.70;;;17.63;;
10603;SDS011;5349;41.554;23.274;2023-01-31T01:07:07;58.13;;;25.30;;
10603;SDS011;5349;41.554;23.274;2023-01-31T01:09:34;88.43;;;31.50;;
10603;SDS011;5349;41.554;23.274;2023-01-31T01:12:02;77.87;;;30.00;;
10603;SDS011;5349;41.554;23.274;2023-01-31T01:14:29;46.37;;;23.87;;
10603;SDS011;5349;41.554;23.274;2023-01-31T01:16:56;43.87;;;23.30;;
10603;SDS011;5349;41.554;23.274;2023-01-31T01:19:23;46.30;;;24.63;;
10603;SDS011;5349;41.554;23.274;2023-01-31T01:21:50;37.83;;;21.37;;
10603;SDS011;5349;41.554;23.274;2023-01-31T01:24:20;31.93;;;19.80;;
10603;SDS011;5349;41.554;23.274;2023-01-31T01:26:46;33.37;;;21.37;;
10603;SDS011;5349;41.554;23.274;2023-01-31T01:29:15;32.53;;;20.60;;
10603;SDS011;5349;41.554;23.274;2023-01-31T01:31:41;31.80;;;20.00;;
10603;SDS011;5349;41.554;23.274;2023-01-31T01:34:10;30.70;;;18.50;;
10603;SDS011;5349;41.554;23.274;2023-01-31T01:36:38;35.97;;;19.73;;
10603;SDS011;5349;41.554;23.274;2023-01-31T01:39:06;31.23;;;18.70;;
10603;SDS011;5349;41.554;23.274;2023-01-31T01:41:35;32.40;;;20.03;;
10603;SDS011;5349;41.554;23.274;2023-01-31T01:44:39;33.23;;;20.87;;
10603;SDS011;5349;41.554;23.274;2023-01-31T01:47:31;29.63;;;18.27;;
10603;SDS011;5349;41.554;23.274;2023-01-31T01:50:02;30.50;;;19.03;;
10603;SDS011;5349;41.554;23.274;2023-01-31T01:52:33;29.70;;;18.07;;
10603;SDS011;5349;41.554;23.274;2023-01-31T01:55:05;46.30;;;25.93;;
10603;SDS011;5349;41.554;23.274;2023-01-31T01:57:40;32.40;;;18.10;;
10603;SDS011;5349;41.554;23.274;2023-01-31T02:00:14;29.40;;;18.63;;
10603;SDS011;5349;41.554;23.274;2023-01-31T02:02:45;34.90;;;19.33;;
10603;SDS011;5349;41.554;23.274;2023-01-31T02:05:15;45.93;;;25.40;;
10603;SDS011;5349;41.554;23.274;2023-01-31T02:07:45;32.20;;;19.90;;
10603;SDS011;5349;41.554;23.274;2023-01-31T02:10:13;33.33;;;19.63;;
10603;SDS011;5349;41.554;23.274;2023-01-31T02:12:46;34.70;;;20.47;;
10603;SDS011;5349;41.554;23.274;2023-01-31T02:15:14;30.13;;;18.13;;
10603;SDS011;5349;41.554;23.274;2023-01-31T02:17:41;27.90;;;19.60;;
10603;SDS011;5349;41.554;23.274;2023-01-31T02:20:12;38.93;;;18.20;;
10603;SDS011;5349;41.554;23.274;2023-01-31T02:22:55;27.13;;;16.77;;
10603;SDS011;5349;41.554;23.274;2023-01-31T02:29:02;41.33;;;28.50;;
10603;SDS011;5349;41.554;23.274;2023-01-31T02:35:15;36.27;;;22.97;;
10603;SDS011;5349;41.554;23.274;2023-01-31T02:37:51;36.83;;;24.83;;
10603;SDS011;5349;41.554;23.274;2023-01-31T02:40:26;30.70;;;21.67;;
10603;SDS011;5349;41.554;23.274;2023-01-31T02:43:03;34.73;;;22.80;;
10603;SDS011;5349;41.554;23.274;2023-01-31T02:45:38;30.53;;;20.33;;
10603;SDS011;5349;41.554;23.274;2023-01-31T02:48:14;28.40;;;19.60;;
10603;SDS011;5349;41.554;23.274;2023-01-31T02:50:45;30.17;;;19.37;;
10603;SDS011;5349;41.554;23.274;2023-01-31T02:53:19;51.87;;;27.27;;
10603;SDS011;5349;41.554;23.274;2023-01-31T02:55:51;33.10;;;21.37;;
10603;SDS011;5349;41.554;23.274;2023-01-31T02:58:38;29.07;;;19.03;;
10603;SDS011;5349;41.554;23.274;2023-01-31T03:01:09;26.33;;;17.10;;
10603;SDS011;5349;41.554;23.274;2023-01-31T03:03:42;22.87;;;15.80;;
10603;SDS011;5349;41.554;23.274;2023-01-31T03:06:11;24.90;;;15.50;;
10603;SDS011;5349;41.554;23.274;2023-01-31T03:09:26;33.77;;;19.77;;
10603;SDS011;5349;41.554;23.274;2023-01-31T03:12:02;26.37;;;17.40;;
10603;SDS011;5349;41.554;23.274;2023-01-31T03:14:41;29.87;;;17.47;;
10603;SDS011;5349;41.554;23.274;2023-01-31T03:17:14;27.80;;;18.03;;
10603;SDS011;5349;41.554;23.274;2023-01-31T03:20:02;25.40;;;15.53;;
10603;SDS011;5349;41.554;23.274;2023-01-31T03:22:34;27.17;;;17.70;;
10603;SDS011;5349;41.554;23.274;2023-01-31T03:25:04;31.63;;;20.67;;
10603;SDS011;5349;41.554;23.274;2023-01-31T03:27:35;22.70;;;13.83;;
10603;SDS011;5349;41.554;23.274;2023-01-31T03:30:06;23.17;;;14.30;;
10603;SDS011;5349;41.554;23.274;2023-01-31T03:32:38;23.57;;;14.73;;
10603;SDS011;5349;41.554;23.274;2023-01-31T03:35:11;34.53;;;22.57;;
10603;SDS011;5349;41.554;23.274;2023-01-31T03:37:40;27.50;;;16.40;;
10603;SDS011;5349;41.554;23.274;2023-01-31T03:40:15;28.47;;;15.93;;
10603;SDS011;5349;41.554;23.274;2023-01-31T03:42:46;25.27;;;15.67;;
10603;SDS011;5349;41.554;23.274;2023-01-31T03:45:20;26.57;;;16.53;;
10603;SDS011;5349;41.554;23.274;2023-01-31T03:47:53;24.17;;;15.00;;
10603;SDS011;5349;41.554;23.274;2023-01-31T03:50:24;22.73;;;15.00;;
10603;SDS011;5349;41.554;23.274;2023-01-31T03:52:55;25.07;;;15.27;;
10603;SDS011;5349;41.554;23.274;2023-01-31T03:55:27;25.27;;;15.80;;
10603;SDS011;5349;41.554;23.274;2023-01-31T03:57:57;25.23;;;15.57;;
10603;SDS011;5349;41.554;23.274;2023-01-31T04:00:25;25.33;;;16.30;;
10603;SDS011;5349;41.554;23.274;2023-01-31T04:02:55;22.67;;;14.50;;
10603;SDS011;5349;41.554;23.274;2023-01-31T04:05:27;23.47;;;15.43;;
10603;SDS011;5349;41.554;23.274;2023-01-31T04:07:56;19.93;;;13.10;;
10603;SDS011;5349;41.554;23.274;2023-01-31T04:10:24;20.47;;;13.00;;
10603;SDS011;5349;41.554;23.274;2023-01-31T04:12:51;24.17;;;14.93;;
10603;SDS011;5349;41.554;23.274;2023-01-31T04:15:18;23.73;;;14.37;;
10603;SDS011;5349;41.554;23.274;2023-01-31T04:17:46;21.23;;;13.07;;
10603;SDS011;5349;41.554;23.274;2023-01-31T04:20:12;21.07;;;13.40;;
10603;SDS011;5349;41.554;23.274;2023-01-31T04:22:41;21.20;;;13.83;;
10603;SDS011;5349;41.554;23.274;2023-01-31T04:25:08;18.30;;;12.63;;
10603;SDS011;5349;41.554;23.274;2023-01-31T04:27:35;20.67;;;14.07;;
10603;SDS011;5349;41.554;23.274;2023-01-31T04:30:03;31.40;;;20.30;;
10603;SDS011;5349;41.554;23.274;2023-01-31T04:32:31;38.97;;;26.00;;
10603;SDS011;5349;41.554;23.274;2023-01-31T04:34:57;56.77;;;35.27;;
10603;SDS011;5349;41.554;23.274;2023-01-31T04:37:24;40.50;;;26.17;;
10603;SDS011;5349;41.554;23.274;2023-01-31T04:39:52;44.63;;;29.63;;
10603;SDS011;5349;41.554;23.274;2023-01-31T04:42:19;38.30;;;25.30;;
10603;SDS011;5349;41.554;23.274;2023-01-31T04:44:46;29.50;;;18.67;;
10603;SDS011;5349;41.554;23.274;2023-01-31T04:47:13;19.40;;;12.73;;
10603;SDS011;5349;41.554;23.274;2023-01-31T04:49:40;27.07;;;17.10;;
10603;SDS011;5349;41.554;23.274;2023-01-31T04:52:08;26.40;;;12.10;;
10603;SDS011;5349;41.554;23.274;2023-01-31T04:54:35;21.50;;;13.87;;
10603;SDS011;5349;41.554;23.274;2023-01-31T04:57:04;19.43;;;12.37;;
10603;SDS011;5349;41.554;23.274;2023-01-31T04:59:31;19.53;;;10.47;;
10603;SDS011;5349;41.554;23.274;2023-01-31T05:01:57;20.67;;;10.53;;
10603;SDS011;5349;41.554;23.274;2023-01-31T05:04:24;19.10;;;11.30;;
10603;SDS011;5349;41.554;23.274;2023-01-31T05:06:51;18.63;;;12.13;;
10603;SDS011;5349;41.554;23.274;2023-01-31T05:09:18;18.93;;;11.17;;
10603;SDS011;5349;41.554;23.274;2023-01-31T05:11:46;21.80;;;13.80;;
10603;SDS011;5349;41.554;23.274;2023-01-31T05:14:15;20.63;;;11.83;;
10603;SDS011;5349;41.554;23.274;2023-01-31T05:16:42;18.10;;;10.60;;
10603;SDS011;5349;41.554;23.274;2023-01-31T05:19:11;20.33;;;12.17;;
10603;SDS011;5349;41.554;23.274;2023-01-31T05:21:38;30.93;;;17.73;;
10603;SDS011;5349;41.554;23.274;2023-01-31T05:24:18;20.20;;;11.70;;
10603;SDS011;5349;41.554;23.274;2023-01-31T05:26:45;19.60;;;11.73;;
10603;SDS011;5349;41.554;23.274;2023-01-31T05:29:16;16.60;;;10.53;;
10603;SDS011;5349;41.554;23.274;2023-01-31T05:31:43;19.97;;;11.70;;
10603;SDS011;5349;41.554;23.274;2023-01-31T05:34:10;18.10;;;10.53;;
10603;SDS011;5349;41.554;23.274;2023-01-31T05:36:39;17.13;;;10.33;;
10603;SDS011;5349;41.554;23.274;2023-01-31T05:39:06;14.83;;;9.53;;
10603;SDS011;5349;41.554;23.274;2023-01-31T05:41:33;14.70;;;9.40;;
10603;SDS011;5349;41.554;23.274;2023-01-31T05:44:00;36.43;;;19.97;;
10603;SDS011;5349;41.554;23.274;2023-01-31T05:46:28;18.77;;;11.50;;
10603;SDS011;5349;41.554;23.274;2023-01-31T05:48:55;16.77;;;10.63;;
10603;SDS011;5349;41.554;23.274;2023-01-31T05:51:22;21.10;;;12.17;;
10603;SDS011;5349;41.554;23.274;2023-01-31T05:53:49;27.57;;;16.90;;
10603;SDS011;5349;41.554;23.274;2023-01-31T05:56:16;19.47;;;12.50;;
10603;SDS011;5349;41.554;23.274;2023-01-31T05:58:43;18.17;;;12.17;;
10603;SDS011;5349;41.554;23.274;2023-01-31T06:01:14;25.90;;;13.20;;
10603;SDS011;5349;41.554;23.274;2023-01-31T06:03:43;21.80;;;11.67;;
10603;SDS011;5349;41.554;23.274;2023-01-31T06:06:09;16.90;;;11.10;;
10603;SDS011;5349;41.554;23.274;2023-01-31T06:08:36;15.20;;;9.97;;
10603;SDS011;5349;41.554;23.274;2023-01-31T06:11:03;24.73;;;13.27;;
10603;SDS011;5349;41.554;23.274;2023-01-31T06:13:30;16.73;;;9.50;;
10603;SDS011;5349;41.554;23.274;2023-01-31T06:15:57;10.60;;;6.17;;
10603;SDS011;5349;41.554;23.274;2023-01-31T06:18:24;18.83;;;10.50;;
10603;SDS011;5349;41.554;23.274;2023-01-31T06:20:53;18.03;;;10.73;;
10603;SDS011;5349;41.554;23.274;2023-01-31T06:23:20;16.70;;;10.13;;
10603;SDS011;5349;41.554;23.274;2023-01-31T06:25:47;14.47;;;8.77;;
10603;SDS011;5349;41.554;23.274;2023-01-31T06:28:14;17.47;;;8.07;;
10603;SDS011;5349;41.554;23.274;2023-01-31T06:30:41;16.47;;;8.83;;
10603;SDS011;5349;41.554;23.274;2023-01-31T06:33:09;16.40;;;8.40;;
10603;SDS011;5349;41.554;23.274;2023-01-31T06:35:36;14.17;;;8.27;;
10603;SDS011;5349;41.554;23.274;2023-01-31T06:38:05;16.53;;;9.50;;
10603;SDS011;5349;41.554;23.274;2023-01-31T06:40:33;12.77;;;8.57;;
10603;SDS011;5349;41.554;23.274;2023-01-31T06:43:01;18.77;;;10.30;;
10603;SDS011;5349;41.554;23.274;2023-01-31T06:45:27;15.23;;;9.30;;
10603;SDS011;5349;41.554;23.274;2023-01-31T06:47:54;19.60;;;11.40;;
10603;SDS011;5349;41.554;23.274;2023-01-31T06:50:21;14.57;;;8.97;;
10603;SDS011;5349;41.554;23.274;2023-01-31T06:52:48;16.70;;;9.77;;
10603;SDS011;5349;41.554;23.274;2023-01-31T06:55:16;14.77;;;9.53;;
10603;SDS011;5349;41.554;23.274;2023-01-31T06:57:46;10.30;;;5.57;;
10603;SDS011;5349;41.554;23.274;2023-01-31T07:00:14;16.67;;;8.93;;
10603;SDS011;5349;41.554;23.274;2023-01-31T07:02:42;24.20;;;12.23;;
10603;SDS011;5349;41.554;23.274;2023-01-31T07:05:09;26.17;;;12.83;;
10603;SDS011;5349;41.554;23.274;2023-01-31T07:07:36;22.57;;;11.43;;
10603;SDS011;5349;41.554;23.274;2023-01-31T07:10:03;23.07;;;10.63;;
10603;SDS011;5349;41.554;23.274;2023-01-31T07:12:32;15.70;;;9.40;;
10603;SDS011;5349;41.554;23.274;2023-01-31T07:14:58;10.97;;;6.13;;
10603;SDS011;5349;41.554;23.274;2023-01-31T07:17:25;14.50;;;9.00;;
10603;SDS011;5349;41.554;23.274;2023-01-31T07:19:52;13.77;;;7.93;;
10603;SDS011;5349;41.554;23.274;2023-01-31T07:22:19;11.80;;;7.40;;
10603;SDS011;5349;41.554;23.274;2023-01-31T07:24:46;11.77;;;7.07;;
10603;SDS011;5349;41.554;23.274;2023-01-31T07:27:14;11.90;;;8.03;;
10603;SDS011;5349;41.554;23.274;2023-01-31T07:29:43;8.40;;;5.63;;
10603;SDS011;5349;41.554;23.274;2023-01-31T07:32:10;9.67;;;5.23;;
10603;SDS011;5349;41.554;23.274;2023-01-31T07:34:37;14.50;;;9.07;;
10603;SDS011;5349;41.554;23.274;2023-01-31T07:37:04;13.60;;;8.23;;
10603;SDS011;5349;41.554;23.274;2023-01-31T07:39:31;14.77;;;8.83;;
10603;SDS011;5349;41.554;23.274;2023-01-31T07:41:57;24.87;;;13.23;;
10603;SDS011;5349;41.554;23.274;2023-01-31T07:44:24;11.87;;;7.07;;
10603;SDS011;5349;41.554;23.274;2023-01-31T07:46:52;13.20;;;7.13;;
10603;SDS011;5349;41.554;23.274;2023-01-31T07:49:20;15.13;;;8.00;;
10603;SDS011;5349;41.554;23.274;2023-01-31T07:51:47;24.20;;;9.83;;
10603;SDS011;5349;41.554;23.274;2023-01-31T07:54:14;19.07;;;10.07;;
10603;SDS011;5349;41.554;23.274;2023-01-31T07:56:41;20.40;;;11.03;;
10603;SDS011;5349;41.554;23.274;2023-01-31T07:59:08;34.13;;;14.03;;
10603;SDS011;5349;41.554;23.274;2023-01-31T08:01:35;14.07;;;7.63;;
10603;SDS011;5349;41.554;23.274;2023-01-31T08:04:20;12.93;;;7.50;;
10603;SDS011;5349;41.554;23.274;2023-01-31T08:06:47;10.63;;;5.53;;
10603;SDS011;5349;41.554;23.274;2023-01-31T08:09:16;9.70;;;6.67;;
10603;SDS011;5349;41.554;23.274;2023-01-31T08:11:43;7.77;;;3.83;;
10603;SDS011;5349;41.554;23.274;2023-01-31T08:14:09;14.37;;;7.97;;
10603;SDS011;5349;41.554;23.274;2023-01-31T08:16:36;13.53;;;7.33;;
10603;SDS011;5349;41.554;23.274;2023-01-31T08:19:04;17.37;;;9.17;;
10603;SDS011;5349;41.554;23.274;2023-01-31T08:21:32;11.60;;;7.80;;
10603;SDS011;5349;41.554;23.274;2023-01-31T08:23:59;10.43;;;6.70;;
10603;SDS011;5349;41.554;23.274;2023-01-31T08:26:26;21.93;;;10.60;;
10603;SDS011;5349;41.554;23.274;2023-01-31T08:28:52;11.00;;;6.77;;
10603;SDS011;5349;41.554;23.274;2023-01-31T08:31:20;12.30;;;6.93;;
10603;SDS011;5349;41.554;23.274;2023-01-31T08:33:48;11.80;;;7.83;;
10603;SDS011;5349;41.554;23.274;2023-01-31T08:36:16;14.23;;;7.17;;
10603;SDS011;5349;41.554;23.274;2023-01-31T08:38:46;16.33;;;10.13;;
10603;SDS011;5349;41.554;23.274;2023-01-31T08:41:13;12.70;;;6.80;;
10603;SDS011;5349;41.554;23.274;2023-01-31T08:43:40;7.20;;;4.47;;
10603;SDS011;5349;41.554;23.274;2023-01-31T08:46:07;10.27;;;5.87;;
10603;SDS011;5349;41.554;23.274;2023-01-31T08:48:35;8.73;;;5.40;;
10603;SDS011;5349;41.554;23.274;2023-01-31T08:51:03;10.30;;;6.57;;
10603;SDS011;5349;41.554;23.274;2023-01-31T08:53:32;11.03;;;6.63;;
10603;SDS011;5349;41.554;23.274;2023-01-31T08:56:01;12.27;;;7.23;;
10603;SDS011;5349;41.554;23.274;2023-01-31T08:58:30;10.83;;;6.83;;
10603;SDS011;5349;41.554;23.274;2023-01-31T09:00:59;13.00;;;8.23;;
10603;SDS011;5349;41.554;23.274;2023-01-31T09:03:26;17.00;;;8.00;;
10603;SDS011;5349;41.554;23.274;2023-01-31T09:05:55;6.77;;;4.63;;
10603;SDS011;5349;41.554;23.274;2023-01-31T09:08:24;10.57;;;6.40;;
10603;SDS011;5349;41.554;23.274;2023-01-31T09:10:51;7.80;;;4.63;;
10603;SDS011;5349;41.554;23.274;2023-01-31T09:13:20;9.83;;;6.70;;
10603;SDS011;5349;41.554;23.274;2023-01-31T09:15:55;8.50;;;4.53;;
10603;SDS011;5349;41.554;23.274;2023-01-31T09:18:23;12.50;;;5.07;;
10603;SDS011;5349;41.554;23.274;2023-01-31T09:20:50;7.13;;;4.37;;
10603;SDS011;5349;41.554;23.274;2023-01-31T09:23:17;7.40;;;2.90;;
10603;SDS011;5349;41.554;23.274;2023-01-31T09:25:50;11.63;;;3.90;;
10603;SDS011;5349;41.554;23.274;2023-01-31T09:28:18;5.17;;;3.10;;
10603;SDS011;5349;41.554;23.274;2023-01-31T09:30:46;7.03;;;4.33;;
10603;SDS011;5349;41.554;23.274;2023-01-31T09:33:13;3.37;;;2.77;;
10603;SDS011;5349;41.554;23.274;2023-01-31T09:35:40;8.07;;;3.87;;
10603;SDS011;5349;41.554;23.274;2023-01-31T09:38:06;5.63;;;3.33;;
10603;SDS011;5349;41.554;23.274;2023-01-31T09:40:34;6.30;;;3.33;;
10603;SDS011;5349;41.554;23.274;2023-01-31T09:43:04;5.73;;;3.53;;
10603;SDS011;5349;41.554;23.274;2023-01-31T09:45:36;4.23;;;3.00;;
10603;SDS011;5349;41.554;23.274;2023-01-31T09:48:09;8.47;;;3.97;;
10603;SDS011;5349;41.554;23.274;2023-01-31T09:50:42;7.93;;;5.63;;
10603;SDS011;5349;41.554;23.274;2023-01-31T09:53:14;4.73;;;3.47;;
10603;SDS011;5349;41.554;23.274;2023-01-31T09:55:48;5.40;;;2.60;;
10603;SDS011;5349;41.554;23.274;2023-01-31T09:58:25;5.03;;;3.63;;
10603;SDS011;5349;41.554;23.274;2023-01-31T10:01:02;7.67;;;3.93;;
10603;SDS011;5349;41.554;23.274;2023-01-31T10:03:40;5.30;;;3.77;;
10603;SDS011;5349;41.554;23.274;2023-01-31T10:06:16;16.67;;;9.33;;
10603;SDS011;5349;41.554;23.274;2023-01-31T10:08:47;5.00;;;3.40;;
10603;SDS011;5349;41.554;23.274;2023-01-31T10:11:22;6.23;;;3.87;;
10603;SDS011;5349;41.554;23.274;2023-01-31T10:13:55;4.10;;;2.73;;
10603;SDS011;5349;41.554;23.274;2023-01-31T10:16:29;4.93;;;3.47;;
10603;SDS011;5349;41.554;23.274;2023-01-31T10:19:00;5.10;;;3.77;;
10603;SDS011;5349;41.554;23.274;2023-01-31T10:21:31;4.57;;;3.47;;
10603;SDS011;5349;41.554;23.274;2023-01-31T10:24:04;5.57;;;3.37;;
10603;SDS011;5349;41.554;23.274;2023-01-31T10:26:39;7.20;;;3.73;;
10603;SDS011;5349;41.554;23.274;2023-01-31T10:29:10;9.67;;;4.13;;
10603;SDS011;5349;41.554;23.274;2023-01-31T10:31:45;11.57;;;3.90;;
10603;SDS011;5349;41.554;23.274;2023-01-31T10:34:20;5.50;;;3.83;;
10603;SDS011;5349;41.554;23.274;2023-01-31T10:36:51;9.77;;;3.47;;
10603;SDS011;5349;41.554;23.274;2023-01-31T10:39:24;6.27;;;3.40;;
10603;SDS011;5349;41.554;23.274;2023-01-31T10:42:12;8.60;;;5.10;;
10603;SDS011;5349;41.554;23.274;2023-01-31T10:44:45;6.50;;;4.50;;
10603;SDS011;5349;41.554;23.274;2023-01-31T10:47:19;5.83;;;3.17;;
10603;SDS011;5349;41.554;23.274;2023-01-31T10:49:49;5.67;;;3.57;;
10603;SDS011;5349;41.554;23.274;2023-01-31T10:52:35;6.70;;;3.30;;
10603;SDS011;5349;41.554;23.274;2023-01-31T10:55:17;7.10;;;3.77;;
10603;SDS011;5349;41.554;23.274;2023-01-31T10:57:55;4.53;;;3.20;;
10603;SDS011;5349;41.554;23.274;2023-01-31T11:00:25;3.93;;;2.67;;
10603;SDS011;5349;41.554;23.274;2023-01-31T11:02:57;8.70;;;4.73;;
10603;SDS011;5349;41.554;23.274;2023-01-31T11:05:25;6.93;;;3.50;;
10603;SDS011;5349;41.554;23.274;2023-01-31T11:07:54;8.20;;;4.80;;
10603;SDS011;5349;41.554;23.274;2023-01-31T11:10:23;4.03;;;2.90;;
10603;SDS011;5349;41.554;23.274;2023-01-31T11:12:51;8.80;;;4.93;;
10603;SDS011;5349;41.554;23.274;2023-01-31T11:15:22;6.97;;;4.07;;
10603;SDS011;5349;41.554;23.274;2023-01-31T11:17:50;6.47;;;4.70;;
10603;SDS011;5349;41.554;23.274;2023-01-31T11:20:24;6.57;;;3.93;;
10603;SDS011;5349;41.554;23.274;2023-01-31T11:22:55;5.70;;;3.67;;
10603;SDS011;5349;41.554;23.274;2023-01-31T11:25:24;4.17;;;2.53;;
10603;SDS011;5349;41.554;23.274;2023-01-31T11:27:53;7.17;;;3.93;;
10603;SDS011;5349;41.554;23.274;2023-01-31T11:30:24;6.57;;;4.97;;
10603;SDS011;5349;41.554;23.274;2023-01-31T11:32:53;3.00;;;2.63;;
10603;SDS011;5349;41.554;23.274;2023-01-31T11:35:21;5.03;;;2.87;;
10603;SDS011;5349;41.554;23.274;2023-01-31T11:37:52;4.03;;;2.77;;
10603;SDS011;5349;41.554;23.274;2023-01-31T11:40:21;6.50;;;3.23;;
10603;SDS011;5349;41.554;23.274;2023-01-31T11:42:54;4.43;;;2.67;;
10603;SDS011;5349;41.554;23.274;2023-01-31T11:45:23;5.90;;;3.53;;
10603;SDS011;5349;41.554;23.274;2023-01-31T11:47:53;5.30;;;2.97;;
10603;SDS011;5349;41.554;23.274;2023-01-31T11:50:24;6.40;;;4.13;;
10603;SDS011;5349;41.554;23.274;2023-01-31T11:52:56;6.23;;;3.23;;
10603;SDS011;5349;41.554;23.274;2023-01-31T11:55:24;6.07;;;3.50;;
10603;SDS011;5349;41.554;23.274;2023-01-31T11:57:53;6.27;;;3.90;;
10603;SDS011;5349;41.554;23.274;2023-01-31T12:00:23;5.77;;;3.40;;
10603;SDS011;5349;41.554;23.274;2023-01-31T12:02:52;4.00;;;2.83;;
10603;SDS011;5349;41.554;23.274;2023-01-31T12:05:32;5.53;;;3.77;;
10603;SDS011;5349;41.554;23.274;2023-01-31T12:08:02;4.53;;;3.30;;
10603;SDS011;5349;41.554;23.274;2023-01-31T12:10:31;6.70;;;3.93;;
10603;SDS011;5349;41.554;23.274;2023-01-31T12:13:01;3.97;;;3.10;;
10603;SDS011;5349;41.554;23.274;2023-01-31T12:15:39;3.77;;;3.17;;
10603;SDS011;5349;41.554;23.274;2023-01-31T12:18:11;9.47;;;3.60;;
10603;SDS011;5349;41.554;23.274;2023-01-31T12:20:42;5.97;;;3.90;;
10603;SDS011;5349;41.554;23.274;2023-01-31T12:23:22;5.87;;;4.17;;
10603;SDS011;5349;41.554;23.274;2023-01-31T12:26:00;7.60;;;4.50;;
10603;SDS011;5349;41.554;23.274;2023-01-31T12:28:41;6.67;;;3.87;;
10603;SDS011;5349;41.554;23.274;2023-01-31T12:31:24;5.37;;;3.37;;
10603;SDS011;5349;41.554;23.274;2023-01-31T12:34:08;6.40;;;4.10;;
10603;SDS011;5349;41.554;23.274;2023-01-31T12:36:58;4.47;;;3.40;;
10603;SDS011;5349;41.554;23.274;2023-01-31T12:39:38;4.93;;;3.50;;
10603;SDS011;5349;41.554;23.274;2023-01-31T12:42:21;5.37;;;3.27;;
10603;SDS011;5349;41.554;23.274;2023-01-31T12:45:06;7.90;;;4.70;;
10603;SDS011;5349;41.554;23.274;2023-01-31T12:47:49;5.57;;;4.40;;
10603;SDS011;5349;41.554;23.274;2023-01-31T12:50:27;4.23;;;2.90;;
10603;SDS011;5349;41.554;23.274;2023-01-31T12:53:08;9.00;;;5.73;;
10603;SDS011;5349;41.554;23.274;2023-01-31T12:55:55;15.03;;;8.80;;
10603;SDS011;5349;41.554;23.274;2023-01-31T12:58:43;15.97;;;10.13;;
10603;SDS011;5349;41.554;23.274;2023-01-31T13:01:17;10.57;;;5.47;;
10603;SDS011;5349;41.554;23.274;2023-01-31T13:03:54;6.20;;;4.70;;
10603;SDS011;5349;41.554;23.274;2023-01-31T13:06:30;4.53;;;3.70;;
10603;SDS011;5349;41.554;23.274;2023-01-31T13:09:05;4.50;;;4.10;;
10603;SDS011;5349;41.554;23.274;2023-01-31T13:11:38;5.63;;;4.20;;
10603;SDS011;5349;41.554;23.274;2023-01-31T13:14:11;6.00;;;3.97;;
10603;SDS011;5349;41.554;23.274;2023-01-31T13:16:44;4.17;;;3.13;;
10603;SDS011;5349;41.554;23.274;2023-01-31T13:19:15;4.47;;;3.37;;
10603;SDS011;5349;41.554;23.274;2023-01-31T13:21:47;5.70;;;3.80;;
10603;SDS011;5349;41.554;23.274;2023-01-31T13:24:21;5.20;;;3.90;;
10603;SDS011;5349;41.554;23.274;2023-01-31T13:26:54;7.30;;;5.30;;
10603;SDS011;5349;41.554;23.274;2023-01-31T13:29:27;6.47;;;4.80;;
10603;SDS011;5349;41.554;23.274;2023-01-31T13:31:58;11.57;;;4.90;;
10603;SDS011;5349;41.554;23.274;2023-01-31T13:34:28;3.67;;;2.30;;
10603;SDS011;5349;41.554;23.274;2023-01-31T13:37:03;3.77;;;2.97;;
10603;SDS011;5349;41.554;23.274;2023-01-31T13:39:36;5.00;;;3.60;;
10603;SDS011;5349;41.554;23.274;2023-01-31T13:42:06;4.70;;;3.47;;
10603;SDS011;5349;41.554;23.274;2023-01-31T13:44:35;4.70;;;3.60;;
10603;SDS011;5349;41.554;23.274;2023-01-31T13:47:03;5.90;;;4.30;;
10603;SDS011;5349;41.554;23.274;2023-01-31T13:49:34;10.30;;;5.83;;
10603;SDS011;5349;41.554;23.274;2023-01-31T13:52:04;7.53;;;5.23;;
10603;SDS011;5349;41.554;23.274;2023-01-31T13:54:39;7.27;;;4.80;;
10603;SDS011;5349;41.554;23.274;2023-01-31T13:57:16;7.87;;;5.23;;
10603;SDS011;5349;41.554;23.274;2023-01-31T13:59:50;5.13;;;3.37;;
10603;SDS011;5349;41.554;23.274;2023-01-31T14:02:20;8.07;;;4.37;;
10603;SDS011;5349;41.554;23.274;2023-01-31T14:04:48;11.67;;;6.27;;
10603;SDS011;5349;41.554;23.274;2023-01-31T14:07:21;6.93;;;4.30;;
10603;SDS011;5349;41.554;23.274;2023-01-31T14:15:49;8.73;;;4.53;;
10603;SDS011;5349;41.554;23.274;2023-01-31T14:24:19;3.97;;;3.13;;
10603;SDS011;5349;41.554;23.274;2023-01-31T14:27:13;7.33;;;2.93;;
10603;SDS011;5349;41.554;23.274;2023-01-31T14:29:43;5.87;;;3.60;;
10603;SDS011;5349;41.554;23.274;2023-01-31T14:32:12;6.73;;;3.60;;
10603;SDS011;5349;41.554;23.274;2023-01-31T14:34:45;4.90;;;3.67;;
10603;SDS011;5349;41.554;23.274;2023-01-31T14:37:17;4.60;;;3.43;;
10603;SDS011;5349;41.554;23.274;2023-01-31T14:40:12;3.60;;;2.37;;
10603;SDS011;5349;41.554;23.274;2023-01-31T14:43:02;5.10;;;3.80;;
10603;SDS011;5349;41.554;23.274;2023-01-31T14:45:58;6.80;;;2.83;;
10603;SDS011;5349;41.554;23.274;2023-01-31T14:48:46;8.33;;;5.90;;
10603;SDS011;5349;41.554;23.274;2023-01-31T14:51:30;6.73;;;5.13;;
10603;SDS011;5349;41.554;23.274;2023-01-31T14:54:13;5.97;;;4.30;;
10603;SDS011;5349;41.554;23.274;2023-01-31T14:57:07;8.43;;;7.17;;
10603;SDS011;5349;41.554;23.274;2023-01-31T14:59:42;5.23;;;3.30;;
10603;SDS011;5349;41.554;23.274;2023-01-31T15:05:12;9.70;;;7.23;;
10603;SDS011;5349;41.554;23.274;2023-01-31T15:07:58;15.83;;;10.17;;
10603;SDS011;5349;41.554;23.274;2023-01-31T15:16:22;8.90;;;5.57;;
10603;SDS011;5349;41.554;23.274;2023-01-31T15:18:52;6.70;;;4.00;;
10603;SDS011;5349;41.554;23.274;2023-01-31T15:21:25;6.10;;;4.30;;
10603;SDS011;5349;41.554;23.274;2023-01-31T15:23:55;3.40;;;2.93;;